sensor_id;sensor_type;location;lat;lon;timestamp;P1;durP1;ratioP1;P2;durP2;ratioP2
3231;SDS011;1628;48.884;9.210;2022-12-31T17:11:33;5.25;;;4.80;;
3231;SDS011;1628;48.884;9.210;2022-12-31T17:14:05;4.77;;;4.37;;
3231;SDS011;1628;48.884;9.210;2022-12-31T17:16:39;5.83;;;4.80;;
3231;SDS011;1628;48.884;9.210;2022-12-31T17:19:17;4.67;;;4.27;;
3231;SDS011;1628;48.884;9.210;2022-12-31T17:21:57;5.67;;;5.17;;
3231;SDS011;1628;48.884;9.210;2022-12-31T17:24:24;4.83;;;4.30;;
3231;SDS011;1628;48.884;9.210;2022-12-31T17:26:53;5.27;;;4.77;;
3231;SDS011;1628;48.884;9.210;2022-12-31T17:29:27;111.87;;;95.70;;
3231;SDS011;1628;48.884;9.210;2022-12-31T17:31:59;36.07;;;32.37;;
3231;SDS011;1628;48.884;9.210;2022-12-31T17:34:54;11.67;;;10.43;;
3231;SDS011;1628;48.884;9.210;2022-12-31T17:37:23;13.90;;;12.60;;
3231;SDS011;1628;48.884;9.210;2022-12-31T17:39:53;8.40;;;7.60;;
3231;SDS011;1628;48.884;9.210;2022-12-31T17:42:27;164.60;;;152.47;;
3231;SDS011;1628;48.884;9.210;2022-12-31T17:44:57;18.27;;;16.87;;
3231;SDS011;1628;48.884;9.210;2022-12-31T17:47:34;11.63;;;10.63;;
3231;SDS011;1628;48.884;9.210;2022-12-31T17:50:17;9.80;;;7.50;;
3231;SDS011;1628;48.884;9.210;2022-12-31T17:52:46;7.43;;;5.53;;
3231;SDS011;1628;48.884;9.210;2022-12-31T17:55:13;12.63;;;10.67;;
3231;SDS011;1628;48.884;9.210;2022-12-31T17:57:42;12.50;;;11.20;;
3231;SDS011;1628;48.884;9.210;2022-12-31T18:00:15;62.73;;;57.43;;
3231;SDS011;1628;48.884;9.210;2022-12-31T18:02:43;17.13;;;15.10;;
3231;SDS011;1628;48.884;9.210;2022-12-31T18:05:12;66.03;;;53.70;;
3231;SDS011;1628;48.884;9.210;2022-12-31T18:07:41;8.10;;;7.50;;
3231;SDS011;1628;48.884;9.210;2022-12-31T18:10:08;5.27;;;4.77;;
3231;SDS011;1628;48.884;9.210;2022-12-31T18:12:37;4.77;;;4.33;;
3231;SDS011;1628;48.884;9.210;2022-12-31T18:15:04;10.40;;;9.60;;
3231;SDS011;1628;48.884;9.210;2022-12-31T18:17:32;6.30;;;5.90;;
3231;SDS011;1628;48.884;9.210;2022-12-31T18:19:59;4.67;;;4.33;;
3231;SDS011;1628;48.884;9.210;2022-12-31T18:22:26;4.50;;;4.20;;
3231;SDS011;1628;48.884;9.210;2022-12-31T18:24:54;4.90;;;4.60;;
3231;SDS011;1628;48.884;9.210;2022-12-31T18:27:20;3.97;;;3.60;;
3231;SDS011;1628;48.884;9.210;2022-12-31T18:29:47;4.60;;;4.20;;
3231;SDS011;1628;48.884;9.210;2022-12-31T18:32:17;3.87;;;3.60;;
3231;SDS011;1628;48.884;9.210;2022-12-31T18:34:45;5.30;;;4.90;;
3231;SDS011;1628;48.884;9.210;2022-12-31T18:37:12;6.10;;;5.50;;
3231;SDS011;1628;48.884;9.210;2022-12-31T18:39:39;9.47;;;8.57;;
3231;SDS011;1628;48.884;9.210;2022-12-31T18:42:08;4.23;;;3.90;;
3231;SDS011;1628;48.884;9.210;2022-12-31T18:44:37;5.20;;;4.70;;
3231;SDS011;1628;48.884;9.210;2022-12-31T18:47:04;6.73;;;5.47;;
3231;SDS011;1628;48.884;9.210;2022-12-31T18:49:35;5.97;;;5.47;;
3231;SDS011;1628;48.884;9.210;2022-12-31T18:52:01;6.00;;;4.80;;
3231;SDS011;1628;48.884;9.210;2022-12-31T18:54:28;5.80;;;5.20;;
3231;SDS011;1628;48.884;9.210;2022-12-31T18:56:55;6.70;;;6.20;;
3231;SDS011;1628;48.884;9.210;2022-12-31T18:59:23;7.77;;;7.17;;
3231;SDS011;1628;48.884;9.210;2022-12-31T19:01:49;10.30;;;7.70;;
3231;SDS011;1628;48.884;9.210;2022-12-31T19:04:16;8.87;;;8.03;;
3231;SDS011;1628;48.884;9.210;2022-12-31T19:06:44;9.33;;;8.30;;
3231;SDS011;1628;48.884;9.210;2022-12-31T19:09:12;9.00;;;8.10;;
3231;SDS011;1628;48.884;9.210;2022-12-31T19:11:38;8.90;;;8.00;;
3231;SDS011;1628;48.884;9.210;2022-12-31T19:14:09;9.57;;;8.50;;
3231;SDS011;1628;48.884;9.210;2022-12-31T19:16:41;7.93;;;6.50;;
3231;SDS011;1628;48.884;9.210;2022-12-31T19:19:08;6.53;;;5.93;;
3231;SDS011;1628;48.884;9.210;2022-12-31T19:21:34;8.23;;;7.50;;
3231;SDS011;1628;48.884;9.210;2022-12-31T19:24:01;8.70;;;7.70;;
3231;SDS011;1628;48.884;9.210;2022-12-31T19:26:28;10.00;;;8.43;;
3231;SDS011;1628;48.884;9.210;2022-12-31T19:28:55;9.80;;;8.83;;
3231;SDS011;1628;48.884;9.210;2022-12-31T19:31:22;7.53;;;6.93;;
3231;SDS011;1628;48.884;9.210;2022-12-31T19:33:50;7.53;;;7.00;;
3231;SDS011;1628;48.884;9.210;2022-12-31T19:36:17;8.53;;;7.83;;
3231;SDS011;1628;48.884;9.210;2022-12-31T19:38:45;22.63;;;16.10;;
3231;SDS011;1628;48.884;9.210;2022-12-31T19:41:13;38.50;;;34.50;;
3231;SDS011;1628;48.884;9.210;2022-12-31T19:43:41;15.77;;;14.20;;
3231;SDS011;1628;48.884;9.210;2022-12-31T19:46:09;29.13;;;26.13;;
3231;SDS011;1628;48.884;9.210;2022-12-31T19:48:38;68.93;;;62.03;;
3231;SDS011;1628;48.884;9.210;2022-12-31T19:51:07;96.70;;;88.10;;
3231;SDS011;1628;48.884;9.210;2022-12-31T19:53:35;56.53;;;44.57;;
3231;SDS011;1628;48.884;9.210;2022-12-31T19:56:02;20.30;;;16.10;;
3231;SDS011;1628;48.884;9.210;2022-12-31T19:58:29;22.77;;;19.77;;
3231;SDS011;1628;48.884;9.210;2022-12-31T20:00:56;36.40;;;31.17;;
3231;SDS011;1628;48.884;9.210;2022-12-31T20:03:24;26.47;;;23.67;;
3231;SDS011;1628;48.884;9.210;2022-12-31T20:05:58;141.50;;;114.77;;
3231;SDS011;1628;48.884;9.210;2022-12-31T20:08:27;93.53;;;84.87;;
3231;SDS011;1628;48.884;9.210;2022-12-31T20:10:54;130.47;;;116.20;;
3231;SDS011;1628;48.884;9.210;2022-12-31T20:13:23;107.03;;;96.23;;
3231;SDS011;1628;48.884;9.210;2022-12-31T20:15:50;83.20;;;67.57;;
3231;SDS011;1628;48.884;9.210;2022-12-31T20:18:16;63.97;;;49.07;;
3231;SDS011;1628;48.884;9.210;2022-12-31T20:20:45;181.33;;;162.60;;
3231;SDS011;1628;48.884;9.210;2022-12-31T20:23:14;447.30;;;383.77;;
3231;SDS011;1628;48.884;9.210;2022-12-31T20:25:42;51.63;;;46.77;;
3231;SDS011;1628;48.884;9.210;2022-12-31T20:28:09;15.17;;;13.53;;
3231;SDS011;1628;48.884;9.210;2022-12-31T20:30:36;15.20;;;13.80;;
3231;SDS011;1628;48.884;9.210;2022-12-31T20:33:03;20.37;;;18.27;;
3231;SDS011;1628;48.884;9.210;2022-12-31T20:35:29;11.23;;;10.13;;
3231;SDS011;1628;48.884;9.210;2022-12-31T20:37:56;12.23;;;11.10;;
3231;SDS011;1628;48.884;9.210;2022-12-31T20:40:23;18.13;;;16.53;;
3231;SDS011;1628;48.884;9.210;2022-12-31T20:42:51;12.47;;;11.13;;
3231;SDS011;1628;48.884;9.210;2022-12-31T20:45:17;10.50;;;9.47;;
3231;SDS011;1628;48.884;9.210;2022-12-31T20:47:44;9.90;;;8.90;;
3231;SDS011;1628;48.884;9.210;2022-12-31T20:50:11;16.20;;;9.40;;
3231;SDS011;1628;48.884;9.210;2022-12-31T20:52:37;9.93;;;9.13;;
3231;SDS011;1628;48.884;9.210;2022-12-31T20:55:04;10.37;;;9.47;;
3231;SDS011;1628;48.884;9.210;2022-12-31T20:57:31;11.00;;;10.00;;
3231;SDS011;1628;48.884;9.210;2022-12-31T20:59:59;12.83;;;9.10;;
3231;SDS011;1628;48.884;9.210;2022-12-31T21:02:26;10.10;;;9.20;;
3231;SDS011;1628;48.884;9.210;2022-12-31T21:04:53;27.53;;;25.20;;
3231;SDS011;1628;48.884;9.210;2022-12-31T21:07:19;19.47;;;17.67;;
3231;SDS011;1628;48.884;9.210;2022-12-31T21:09:46;11.50;;;10.30;;
3231;SDS011;1628;48.884;9.210;2022-12-31T21:12:13;12.97;;;11.80;;
3231;SDS011;1628;48.884;9.210;2022-12-31T21:14:57;11.10;;;10.20;;
3231;SDS011;1628;48.884;9.210;2022-12-31T21:17:25;12.53;;;9.87;;
3231;SDS011;1628;48.884;9.210;2022-12-31T21:19:52;10.00;;;9.20;;
3231;SDS011;1628;48.884;9.210;2022-12-31T21:22:18;11.40;;;10.20;;
3231;SDS011;1628;48.884;9.210;2022-12-31T21:24:46;15.70;;;13.17;;
3231;SDS011;1628;48.884;9.210;2022-12-31T21:27:13;17.33;;;15.53;;
3231;SDS011;1628;48.884;9.210;2022-12-31T21:29:40;17.57;;;15.77;;
3231;SDS011;1628;48.884;9.210;2022-12-31T21:32:06;16.87;;;15.13;;
3231;SDS011;1628;48.884;9.210;2022-12-31T21:34:34;17.40;;;15.80;;
3231;SDS011;1628;48.884;9.210;2022-12-31T21:37:01;15.20;;;13.70;;
3231;SDS011;1628;48.884;9.210;2022-12-31T21:39:28;12.30;;;11.00;;
3231;SDS011;1628;48.884;9.210;2022-12-31T21:41:55;12.57;;;11.33;;
3231;SDS011;1628;48.884;9.210;2022-12-31T21:44:22;12.37;;;10.03;;
3231;SDS011;1628;48.884;9.210;2022-12-31T21:46:52;11.57;;;10.37;;
3231;SDS011;1628;48.884;9.210;2022-12-31T21:49:20;10.63;;;9.63;;
3231;SDS011;1628;48.884;9.210;2022-12-31T21:51:48;10.33;;;9.33;;
3231;SDS011;1628;48.884;9.210;2022-12-31T21:54:32;10.27;;;9.37;;
3231;SDS011;1628;48.884;9.210;2022-12-31T21:57:16;13.70;;;11.50;;
3231;SDS011;1628;48.884;9.210;2022-12-31T21:59:43;11.43;;;10.37;;
3231;SDS011;1628;48.884;9.210;2022-12-31T22:02:27;12.97;;;11.67;;
3231;SDS011;1628;48.884;9.210;2022-12-31T22:05:11;14.10;;;12.53;;
3231;SDS011;1628;48.884;9.210;2022-12-31T22:07:39;15.03;;;13.50;;
3231;SDS011;1628;48.884;9.210;2022-12-31T22:10:06;16.77;;;15.00;;
3231;SDS011;1628;48.884;9.210;2022-12-31T22:12:33;14.70;;;13.20;;
3231;SDS011;1628;48.884;9.210;2022-12-31T22:15:00;13.50;;;12.13;;
3231;SDS011;1628;48.884;9.210;2022-12-31T22:17:26;14.70;;;13.40;;
3231;SDS011;1628;48.884;9.210;2022-12-31T22:19:53;12.83;;;11.63;;
3231;SDS011;1628;48.884;9.210;2022-12-31T22:22:20;13.07;;;11.60;;
3231;SDS011;1628;48.884;9.210;2022-12-31T22:24:48;10.90;;;9.80;;
3231;SDS011;1628;48.884;9.210;2022-12-31T22:27:14;10.33;;;9.30;;
3231;SDS011;1628;48.884;9.210;2022-12-31T22:29:41;11.80;;;10.60;;
3231;SDS011;1628;48.884;9.210;2022-12-31T22:32:07;10.27;;;9.13;;
3231;SDS011;1628;48.884;9.210;2022-12-31T22:34:34;10.97;;;9.97;;
3231;SDS011;1628;48.884;9.210;2022-12-31T22:37:01;11.60;;;9.57;;
3231;SDS011;1628;48.884;9.210;2022-12-31T22:39:27;9.40;;;8.60;;
3231;SDS011;1628;48.884;9.210;2022-12-31T22:41:55;11.17;;;10.07;;
3231;SDS011;1628;48.884;9.210;2022-12-31T22:44:22;9.93;;;8.60;;
3231;SDS011;1628;48.884;9.210;2022-12-31T22:46:49;53.33;;;47.73;;
3231;SDS011;1628;48.884;9.210;2022-12-31T22:49:15;56.63;;;51.20;;
3231;SDS011;1628;48.884;9.210;2022-12-31T22:51:44;19.03;;;17.17;;
3231;SDS011;1628;48.884;9.210;2022-12-31T22:54:11;39.57;;;35.97;;
3231;SDS011;1628;48.884;9.210;2022-12-31T22:56:38;20.67;;;18.67;;
3231;SDS011;1628;48.884;9.210;2022-12-31T22:59:06;22.47;;;20.37;;
3231;SDS011;1628;48.884;9.210;2022-12-31T23:01:33;36.70;;;30.23;;
3231;SDS011;1628;48.884;9.210;2022-12-31T23:03:59;99.50;;;89.37;;
3231;SDS011;1628;48.884;9.210;2022-12-31T23:06:26;47.97;;;42.33;;
3231;SDS011;1628;48.884;9.210;2022-12-31T23:08:53;66.60;;;52.47;;
3231;SDS011;1628;48.884;9.210;2022-12-31T23:11:38;80.70;;;71.57;;
3231;SDS011;1628;48.884;9.210;2022-12-31T23:14:09;106.17;;;94.50;;
3231;SDS011;1628;48.884;9.210;2022-12-31T23:16:57;110.80;;;94.30;;
3231;SDS011;1628;48.884;9.210;2022-12-31T23:19:41;127.10;;;107.80;;
3231;SDS011;1628;48.884;9.210;2022-12-31T23:22:25;137.50;;;113.23;;
3231;SDS011;1628;48.884;9.210;2022-12-31T23:25:09;129.03;;;106.73;;
3231;SDS011;1628;48.884;9.210;2022-12-31T23:27:36;123.53;;;102.97;;
3231;SDS011;1628;48.884;9.210;2022-12-31T23:30:05;124.10;;;105.90;;
3231;SDS011;1628;48.884;9.210;2022-12-31T23:32:32;120.73;;;101.90;;
3231;SDS011;1628;48.884;9.210;2022-12-31T23:34:59;115.80;;;97.67;;
3231;SDS011;1628;48.884;9.210;2022-12-31T23:37:26;132.37;;;108.57;;
3231;SDS011;1628;48.884;9.210;2022-12-31T23:39:52;144.47;;;118.00;;
3231;SDS011;1628;48.884;9.210;2022-12-31T23:42:19;115.57;;;101.90;;
3231;SDS011;1628;48.884;9.210;2022-12-31T23:44:46;112.83;;;98.27;;
3231;SDS011;1628;48.884;9.210;2022-12-31T23:47:14;118.43;;;98.47;;
3231;SDS011;1628;48.884;9.210;2022-12-31T23:49:40;121.07;;;98.70;;
3231;SDS011;1628;48.884;9.210;2022-12-31T23:52:07;120.37;;;101.13;;
3231;SDS011;1628;48.884;9.210;2022-12-31T23:54:33;133.40;;;109.63;;
3231;SDS011;1628;48.884;9.210;2022-12-31T23:57:00;129.47;;;115.13;;
3231;SDS011;1628;48.884;9.210;2022-12-31T23:59:27;135.77;;;115.67;;
